Time;durP1;ratioP1;P1;durP2;ratioP2;P2;SDS_P1;SDS_P2;PMS_P1;PMS_P2;Temp;Humidity;BMP_temperature;BMP_pressure;BME280_temperature;BME280_humidity;BME280_pressure;Samples;Min_cycle;Max_cycle;Signal;HPM_P1;HPM_P2
2020/12/10 00:00:08;;;;;;;3.17;0.93;;;10.30;90.70;;;;;;5073583;28;20032;-70
2020/12/10 00:02:34;;;;;;;2.75;1.10;;;10.20;90.60;;;;;;5055716;28;20068;-70
2020/12/10 00:05:00;;;;;;;2.13;0.80;;;10.10;90.50;;;;;;5084041;28;20068;-69
2020/12/10 00:07:26;;;;;;;1.73;0.80;;;10.20;90.50;;;;;;5073916;28;20523;-69
2020/12/10 00:09:53;;;;;;;1.42;0.85;;;10.40;90.50;;;;;;5073416;28;20043;-69
2020/12/10 00:12:20;;;;;;;3.15;0.82;;;10.60;90.70;;;;;;5073787;28;20040;-69
2020/12/10 00:14:46;;;;;;;1.45;0.70;;;10.50;90.70;;;;;;5073539;28;20068;-69
2020/12/10 00:17:12;;;;;;;2.30;0.60;;;10.20;90.60;;;;;;5073298;28;20499;-69
2020/12/10 00:19:39;;;;;;;2.67;0.60;;;10.30;90.60;;;;;;5073518;28;20131;-69
2020/12/10 00:22:07;;;;;;;2.45;0.70;;;10.70;90.80;;;;;;5073479;28;20442;-69
2020/12/10 00:24:32;;;;;;;1.42;0.50;;;10.40;90.70;;;;;;5073896;28;20036;-69
2020/12/10 00:26:58;;;;;;;2.08;0.60;;;10.40;90.70;;;;;;5073787;28;20045;-69
2020/12/10 00:29:24;;;;;;;1.60;0.40;;;9.90;90.70;;;;;;5073469;28;20036;-69
2020/12/10 00:31:50;;;;;;;2.53;0.50;;;10.40;90.90;;;;;;5073339;28;20045;-70
2020/12/10 00:34:16;;;;;;;0.93;0.35;;;10.20;90.80;;;;;;5055677;28;20509;-69
2020/12/10 00:36:41;;;;;;;0.70;0.40;;;10.00;90.70;;;;;;5077059;28;20097;-69
2020/12/10 00:39:07;;;;;;;1.83;0.50;;;10.30;90.80;;;;;;5076780;28;20064;-69
2020/12/10 00:41:33;;;;;;;1.85;0.40;;;10.50;91.00;;;;;;5076881;28;20046;-69
2020/12/10 00:43:59;;;;;;;0.70;0.30;;;10.30;90.90;;;;;;5076929;28;20576;-69
2020/12/10 00:46:25;;;;;;;0.73;0.22;;;10.30;90.90;;;;;;5076800;28;20560;-69
2020/12/10 00:48:51;;;;;;;0.80;0.20;;;10.50;90.90;;;;;;5076726;28;20061;-70
2020/12/10 00:51:16;;;;;;;0.68;0.00;;;10.80;91.00;;;;;;5077013;28;20040;-69
2020/12/10 00:53:42;;;;;;;0.60;0.10;;;10.50;91.00;;;;;;5076698;28;20133;-70
2020/12/10 00:56:08;;;;;;;0.40;0.10;;;10.50;90.90;;;;;;5076595;28;20492;-69
2020/12/10 00:58:34;;;;;;;0.40;0.00;;;11.10;91.30;;;;;;5076985;28;20040;-69
2020/12/10 01:01:00;;;;;;;0.30;0.10;;;10.70;90.90;;;;;;5077013;28;20391;-70
2020/12/10 01:03:25;;;;;;;0.60;0.00;;;11.00;91.00;;;;;;5077046;28;20037;-70
2020/12/10 01:05:51;;;;;;;0.40;0.00;;;10.90;90.90;;;;;;5076864;28;20178;-69
2020/12/10 01:08:17;;;;;;;0.55;0.10;;;10.90;91.10;;;;;;5076706;28;20028;-69
2020/12/10 01:10:43;;;;;;;1.75;0.10;;;11.30;91.00;;;;;;5076805;28;20048;-70
2020/12/10 01:13:09;;;;;;;1.10;0.10;;;10.90;90.90;;;;;;5076152;28;20136;-70
2020/12/10 01:15:35;;;;;;;0.50;0.10;;;11.10;90.90;;;;;;5076536;28;20048;-70
2020/12/10 01:18:00;;;;;;;0.52;0.08;;;11.20;90.90;;;;;;5076401;28;20396;-70
2020/12/10 01:20:26;;;;;;;1.30;0.10;;;11.00;90.80;;;;;;5076644;28;20060;-69
2020/12/10 01:22:52;;;;;;;1.08;0.10;;;10.90;91.20;;;;;;5058496;28;20043;-69
2020/12/10 01:25:18;;;;;;;1.08;0.10;;;11.50;91.10;;;;;;5076170;28;20132;-69
2020/12/10 01:27:44;;;;;;;3.00;0.13;;;11.20;91.00;;;;;;5058000;28;20070;-70
2020/12/10 01:30:09;;;;;;;3.63;0.03;;;11.00;91.00;;;;;;5076079;28;20094;-70
2020/12/10 01:32:35;;;;;;;3.28;0.20;;;11.60;91.20;;;;;;5076686;28;20098;-70
2020/12/10 01:35:01;;;;;;;7.47;0.20;;;11.50;91.20;;;;;;5076266;28;20045;-70
2020/12/10 01:37:27;;;;;;;4.00;0.45;;;11.10;91.00;;;;;;5076262;28;20075;-70
2020/12/10 01:39:53;;;;;;;5.43;0.35;;;11.20;91.10;;;;;;5076001;28;20041;-70
2020/12/10 01:42:19;;;;;;;4.53;0.20;;;11.60;91.10;;;;;;5076029;28;20562;-70
2020/12/10 01:44:45;;;;;;;6.55;0.43;;;11.60;91.20;;;;;;5076233;28;20040;-70
2020/12/10 01:47:11;;;;;;;2.85;0.20;;;11.00;90.90;;;;;;5075921;28;20093;-70
2020/12/10 01:49:38;;;;;;;11.40;0.55;;;11.50;91.00;;;;;;5076018;28;20036;-70
2020/12/10 01:52:05;;;;;;;6.97;0.47;;;11.40;91.20;;;;;;5075977;28;20040;-70
2020/12/10 01:54:33;;;;;;;9.23;0.93;;;11.50;91.80;;;;;;5075689;28;20094;-70
2020/12/10 01:56:59;;;;;;;9.45;0.77;;;11.40;91.80;;;;;;5075440;28;20036;-70
2020/12/10 01:59:25;;;;;;;8.60;0.80;;;11.30;91.80;;;;;;5076020;28;20093;-70
2020/12/10 02:01:51;;;;;;;7.43;1.08;;;11.20;91.80;;;;;;5076092;28;20106;-70
2020/12/10 02:04:33;;;;;;;4.85;1.20;;;11.70;91.40;;;;;;5075473;28;20500;-70
2020/12/10 02:06:59;;;;;;;8.60;1.02;;;11.80;92.20;;;;;;5075490;28;20036;-70
2020/12/10 02:09:25;;;;;;;9.63;0.98;;;11.20;91.80;;;;;;5075606;28;20504;-70
2020/12/10 02:11:52;;;;;;;5.13;0.55;;;11.30;91.20;;;;;;5075166;28;20100;-70
2020/12/10 02:14:19;;;;;;;2.75;0.30;;;11.50;91.30;;;;;;5075357;28;20049;-70
2020/12/10 02:16:45;;;;;;;2.78;0.13;;;11.60;91.50;;;;;;5075529;28;20048;-70
2020/12/10 02:19:11;;;;;;;1.95;0.10;;;11.50;91.50;;;;;;5075365;28;20107;-70
2020/12/10 02:21:37;;;;;;;2.78;0.10;;;11.30;91.40;;;;;;5075449;28;20392;-70
2020/12/10 02:24:03;;;;;;;2.38;0.10;;;11.40;91.50;;;;;;5075228;28;20487;-70
2020/12/10 02:26:29;;;;;;;2.45;0.00;;;10.90;91.40;;;;;;5075767;28;20051;-70
2020/12/10 02:29:00;;;;;;;5.25;0.13;;;11.40;91.50;;;;;;5075465;28;20388;-70
2020/12/10 02:31:28;;;;;;;4.22;0.10;;;11.00;91.70;;;;;;5075357;28;20130;-70
2020/12/10 02:34:01;;;;;;;4.85;0.10;;;10.90;91.50;;;;;;5075504;28;20040;-70
2020/12/10 02:36:27;;;;;;;5.60;0.10;;;11.10;91.70;;;;;;5075411;28;20072;-70
2020/12/10 02:38:53;;;;;;;3.85;0.15;;;10.80;91.50;;;;;;5057539;28;20033;-70
2020/12/10 02:41:19;;;;;;;3.92;0.20;;;11.00;91.90;;;;;;5074935;28;20422;-70
2020/12/10 02:43:46;;;;;;;4.68;0.10;;;10.40;91.60;;;;;;5075356;28;20479;-70
2020/12/10 02:46:12;;;;;;;7.38;0.10;;;11.00;91.70;;;;;;5075250;28;20087;-70
2020/12/10 02:48:38;;;;;;;6.13;0.20;;;11.00;91.70;;;;;;5075442;28;20107;-70
2020/12/10 02:51:04;;;;;;;4.50;0.15;;;10.30;91.50;;;;;;5075123;28;20044;-70
2020/12/10 02:53:31;;;;;;;8.10;0.40;;;10.30;91.70;;;;;;5074959;28;20048;-70
2020/12/10 02:55:57;;;;;;;9.45;0.50;;;10.50;91.70;;;;;;5057215;28;20115;-69
2020/12/10 02:58:23;;;;;;;4.60;0.38;;;10.30;91.70;;;;;;5073926;28;20033;-69
2020/12/10 03:00:49;;;;;;;8.90;0.20;;;10.30;91.60;;;;;;5074807;28;20105;-69
2020/12/10 03:03:15;;;;;;;11.30;0.57;;;9.90;91.60;;;;;;5074797;28;20040;-71
2020/12/10 03:05:42;;;;;;;7.72;0.40;;;9.90;91.50;;;;;;5074668;28;20041;-71
2020/12/10 03:08:08;;;;;;;10.13;0.57;;;9.60;91.60;;;;;;5074743;28;20036;-70
2020/12/10 03:10:33;;;;;;;10.93;0.35;;;9.80;91.60;;;;;;5074388;28;20436;-71
2020/12/10 03:12:59;;;;;;;12.15;0.50;;;10.40;91.80;;;;;;5074385;28;20511;-71
2020/12/10 03:15:25;;;;;;;7.95;0.47;;;10.00;91.80;;;;;;5074306;28;20097;-71
2020/12/10 03:17:52;;;;;;;10.65;0.68;;;10.10;91.70;;;;;;5073722;28;20037;-70
2020/12/10 03:20:17;;;;;;;12.27;0.50;;;10.10;91.70;;;;;;5074211;28;20051;-71
2020/12/10 03:22:43;;;;;;;12.73;0.75;;;9.80;91.60;;;;;;5074342;28;20043;-70
2020/12/10 03:25:09;;;;;;;9.95;0.57;;;10.10;91.70;;;;;;5074441;28;20041;-71
2020/12/10 03:27:36;;;;;;;17.90;0.70;;;9.90;91.70;;;;;;5073777;28;20033;-71
2020/12/10 03:30:04;;;;;;;9.57;0.60;;;9.50;91.60;;;;;;5056554;28;20076;-71
2020/12/10 03:32:30;;;;;;;12.32;0.73;;;9.60;91.60;;;;;;5056577;28;20041;-71
2020/12/10 03:34:56;;;;;;;12.20;1.08;;;9.50;91.40;;;;;;5073834;28;20051;-71
2020/12/10 03:37:22;;;;;;;10.35;0.98;;;9.90;91.50;;;;;;5056082;28;20059;-71
2020/12/10 03:39:47;;;;;;;18.98;1.38;;;9.30;91.30;;;;;;5073752;28;20048;-71
2020/12/10 03:42:13;;;;;;;12.13;0.95;;;9.40;91.50;;;;;;5056341;28;20040;-71
2020/12/10 03:44:39;;;;;;;15.73;1.25;;;9.50;91.40;;;;;;5073725;28;20101;-71
2020/12/10 03:47:05;;;;;;;12.90;1.08;;;9.50;91.50;;;;;;5073829;28;20496;-71
2020/12/10 03:49:31;;;;;;;10.85;1.13;;;9.70;91.50;;;;;;5073880;28;20051;-71
2020/12/10 03:51:57;;;;;;;12.02;1.05;;;9.20;91.50;;;;;;5074017;28;20043;-71
2020/12/10 03:54:23;;;;;;;15.93;0.90;;;9.40;91.50;;;;;;5055662;28;20087;-71
2020/12/10 03:56:49;;;;;;;14.73;1.02;;;9.70;91.70;;;;;;5073920;28;20024;-71
2020/12/10 03:59:15;;;;;;;15.85;1.17;;;9.40;91.70;;;;;;5074336;28;20123;-71
2020/12/10 04:01:41;;;;;;;14.00;1.00;;;10.20;91.90;;;;;;5073769;28;20050;-71
2020/12/10 04:04:07;;;;;;;12.55;1.17;;;9.60;91.50;;;;;;5073648;28;20048;-71
2020/12/10 04:06:32;;;;;;;15.23;1.00;;;9.80;91.60;;;;;;5074065;28;20380;-71
2020/12/10 04:08:58;;;;;;;17.38;1.02;;;9.30;91.40;;;;;;5074938;28;20064;-71
2020/12/10 04:11:24;;;;;;;12.55;1.20;;;9.20;91.30;;;;;;5078385;28;20036;-71
2020/12/10 04:13:50;;;;;;;13.18;1.00;;;9.50;91.40;;;;;;5077669;28;20040;-71
2020/12/10 04:16:16;;;;;;;20.92;1.23;;;9.20;91.20;;;;;;5067044;28;20376;-71
2020/12/10 04:18:43;;;;;;;14.52;0.88;;;9.40;91.20;;;;;;5076332;28;20040;-71
2020/12/10 04:21:13;;;;;;;16.58;1.10;;;9.30;91.20;;;;;;5077351;28;20032;-71
2020/12/10 04:23:39;;;;;;;16.58;1.42;;;9.50;91.40;;;;;;5077857;28;20040;-71
2020/12/10 04:26:05;;;;;;;15.68;1.20;;;9.10;91.20;;;;;;5077571;28;20135;-71
2020/12/10 04:28:32;;;;;;;15.60;1.13;;;9.30;91.30;;;;;;5076304;28;20079;-71
2020/12/10 04:30:57;;;;;;;10.90;0.70;;;9.10;91.30;;;;;;5077666;28;20123;-71
2020/12/10 04:33:25;;;;;;;19.20;1.48;;;8.90;91.50;;;;;;5077525;28;20123;-71
2020/12/10 04:35:51;;;;;;;17.85;1.55;;;8.90;91.10;;;;;;5077220;28;20036;-71
2020/12/10 04:38:17;;;;;;;15.65;1.30;;;9.20;91.10;;;;;;5086862;28;20036;-71
2020/12/10 04:40:44;;;;;;;17.83;2.15;;;8.90;90.80;;;;;;5097667;28;20505;-71
2020/12/10 04:43:11;;;;;;;17.63;1.80;;;9.40;90.90;;;;;;5097319;28;20567;-71
2020/12/10 04:45:37;;;;;;;11.80;1.42;;;9.00;90.70;;;;;;5097703;28;20039;-71
2020/12/10 04:48:04;;;;;;;19.98;1.55;;;8.70;90.80;;;;;;5097577;28;20499;-70
2020/12/10 04:50:33;;;;;;;18.52;1.33;;;8.90;90.90;;;;;;5097498;28;20047;-71
2020/12/10 04:52:59;;;;;;;15.60;1.55;;;8.90;90.90;;;;;;5097132;28;20040;-71
2020/12/10 04:55:26;;;;;;;14.52;1.27;;;8.60;90.90;;;;;;5097244;28;20039;-71
2020/12/10 04:57:53;;;;;;;16.45;1.08;;;8.90;90.90;;;;;;5095845;28;20047;-71
2020/12/10 05:00:21;;;;;;;22.70;1.88;;;8.60;90.80;;;;;;5097264;28;20483;-70
2020/12/10 05:02:47;;;;;;;21.55;1.40;;;9.20;91.20;;;;;;5097293;28;20035;-71
2020/12/10 05:05:29;;;;;;;16.02;1.42;;;8.40;90.80;;;;;;5096909;28;20036;-70
2020/12/10 05:07:58;;;;;;;17.98;1.40;;;9.00;90.70;;;;;;5095465;28;20071;-71
2020/12/10 05:10:25;;;;;;;17.70;1.42;;;8.60;90.90;;;;;;5096956;28;20048;-71
2020/12/10 05:13:00;;;;;;;24.35;1.63;;;8.70;91.00;;;;;;5096520;28;20040;-71
2020/12/10 05:15:34;;;;;;;23.58;1.23;;;8.80;91.00;;;;;;5095644;28;20515;-71
2020/12/10 05:18:08;;;;;;;15.18;1.48;;;8.90;91.20;;;;;;5062019;28;20068;-70
2020/12/10 05:20:45;;;;;;;14.65;1.13;;;9.10;91.10;;;;;;5096320;28;20048;-71
2020/12/10 05:23:17;;;;;;;17.90;1.27;;;9.20;91.20;;;;;;5096895;28;20044;-71
2020/12/10 05:25:54;;;;;;;25.85;1.95;;;9.00;90.40;;;;;;5096612;28;20399;-71
2020/12/10 05:28:21;;;;;;;19.95;1.80;;;9.00;91.00;;;;;;5078711;28;20040;-70
2020/12/10 05:31:09;;;;;;;20.65;1.50;;;8.80;90.70;;;;;;5078866;28;20047;-71
2020/12/10 05:33:35;;;;;;;18.42;1.70;;;8.60;90.80;;;;;;5096697;28;20056;-71
2020/12/10 05:36:12;;;;;;;14.93;1.52;;;8.80;90.70;;;;;;5078515;28;20521;-71
2020/12/10 05:39:05;;;;;;;21.95;1.92;;;8.70;91.00;;;;;;5078188;28;20032;-71
2020/12/10 05:41:36;;;;;;;16.85;1.42;;;8.40;90.60;;;;;;5096504;28;20039;-71
2020/12/10 05:44:22;;;;;;;17.98;1.48;;;9.20;91.00;;;;;;5078066;28;20046;-71
2020/12/10 05:47:02;;;;;;;21.42;1.65;;;8.90;90.60;;;;;;5096113;28;20040;-71
2020/12/10 05:49:28;;;;;;;26.73;1.95;;;8.60;90.70;;;;;;5078076;28;20032;-71
2020/12/10 05:52:02;;;;;;;22.73;2.20;;;8.50;90.60;;;;;;5093058;28;20140;-69
2020/12/10 05:54:33;;;;;;;23.13;2.10;;;8.70;90.80;;;;;;5075060;28;20044;-70
2020/12/10 05:57:04;;;;;;;25.15;2.42;;;8.50;90.70;;;;;;5075566;28;20135;-69
2020/12/10 05:59:31;;;;;;;24.65;2.90;;;8.50;90.30;;;;;;5081888;28;20089;-71
2020/12/10 06:02:02;;;;;;;38.45;11.35;;;8.40;90.80;;;;;;5093557;28;20551;-69
2020/12/10 06:04:29;;;;;;;36.17;10.50;;;8.30;90.20;;;;;;5087160;28;20123;-71
2020/12/10 06:06:57;;;;;;;26.27;7.65;;;8.40;90.60;;;;;;5094509;28;20137;-70
2020/12/10 06:09:24;;;;;;;24.10;3.30;;;9.00;90.80;;;;;;5093771;28;20183;-70
2020/12/10 06:12:01;;;;;;;21.33;3.40;;;8.30;90.60;;;;;;5094219;28;20063;-71
2020/12/10 06:14:27;;;;;;;29.90;3.67;;;8.30;90.30;;;;;;5094424;28;20076;-71
2020/12/10 06:17:10;;;;;;;27.00;7.00;;;8.20;90.60;;;;;;5075783;28;20068;-69
2020/12/10 06:19:37;;;;;;;27.75;5.25;;;8.30;90.30;;;;;;5093747;28;20047;-70
2020/12/10 06:22:22;;;;;;;30.58;9.35;;;7.80;90.40;;;;;;5094873;28;20032;-71
2020/12/10 06:24:48;;;;;;;26.17;7.90;;;8.20;90.70;;;;;;5095359;28;20032;-71
2020/12/10 06:27:24;;;;;;;25.40;6.40;;;8.30;90.40;;;;;;5095490;28;20047;-71
2020/12/10 06:29:50;;;;;;;18.63;3.72;;;8.20;90.80;;;;;;5095273;28;20036;-71
2020/12/10 06:32:20;;;;;;;24.92;4.20;;;8.00;90.40;;;;;;5094405;28;20087;-72
2020/12/10 06:34:53;;;;;;;24.52;5.38;;;8.40;90.20;;;;;;5095036;28;20093;-71
2020/12/10 06:37:29;;;;;;;23.98;7.28;;;8.80;90.30;;;;;;5095063;28;20089;-71
2020/12/10 06:39:59;;;;;;;24.50;8.75;;;8.50;90.20;;;;;;5095299;28;20419;-72
2020/12/10 06:42:26;;;;;;;38.33;12.70;;;8.30;90.60;;;;;;5077129;28;20047;-71
2020/12/10 06:44:52;;;;;;;27.23;7.60;;;8.80;90.60;;;;;;5077380;28;20505;-71
2020/12/10 06:47:18;;;;;;;19.65;5.93;;;8.50;90.40;;;;;;5095219;28;20479;-71
2020/12/10 06:49:44;;;;;;;33.05;13.65;;;8.30;90.20;;;;;;5087414;28;20074;-72
2020/12/10 06:52:18;;;;;;;41.13;16.17;;;8.40;90.30;;;;;;5077611;28;20040;-71
2020/12/10 06:55:06;;;;;;;39.95;16.20;;;8.20;90.30;;;;;;5080522;28;20551;-71
2020/12/10 06:58:10;;;;;;;42.08;11.05;;;8.00;90.10;;;;;;5093566;28;20032;-71
2020/12/10 07:00:39;;;;;;;37.92;13.15;;;8.20;90.50;;;;;;5025155;28;20549;-71
2020/12/10 07:03:18;;;;;;;39.90;15.13;;;8.10;90.40;;;;;;5094104;28;20054;-70
2020/12/10 07:05:48;;;;;;;35.42;13.38;;;8.40;90.20;;;;;;5075159;28;20507;-70
2020/12/10 07:08:20;;;;;;;50.50;16.67;;;8.60;90.50;;;;;;5094044;28;20113;-70
2020/12/10 07:10:50;;;;;;;40.05;12.68;;;8.20;90.20;;;;;;5094286;28;20541;-70
2020/12/10 07:13:18;;;;;;;39.58;14.68;;;8.40;90.30;;;;;;5094169;28;20051;-71
2020/12/10 07:15:50;;;;;;;31.38;8.82;;;8.60;90.40;;;;;;5090089;28;20070;-71
2020/12/10 07:18:18;;;;;;;34.00;9.32;;;8.10;90.20;;;;;;5093267;28;20129;-71
2020/12/10 07:20:44;;;;;;;33.42;10.15;;;8.00;89.60;;;;;;5092215;28;20499;-71
2020/12/10 07:23:10;;;;;;;32.92;9.23;;;8.40;89.80;;;;;;5093954;28;20032;-70
2020/12/10 07:25:40;;;;;;;35.30;9.98;;;8.10;90.00;;;;;;5093068;28;20047;-71
2020/12/10 07:28:10;;;;;;;28.42;6.68;;;8.90;90.30;;;;;;5093670;28;20032;-71
2020/12/10 07:30:41;;;;;;;29.98;8.68;;;7.90;90.10;;;;;;5094166;28;20101;-71
2020/12/10 07:33:07;;;;;;;31.20;9.75;;;8.80;90.10;;;;;;5093165;28;20048;-71
2020/12/10 07:35:39;;;;;;;24.70;6.82;;;8.30;90.10;;;;;;5093000;28;20040;-71
2020/12/10 07:38:14;;;;;;;26.58;7.40;;;8.10;89.50;;;;;;5091882;28;20043;-71
2020/12/10 07:40:52;;;;;;;28.60;8.13;;;8.30;89.30;;;;;;5092833;28;20051;-71
2020/12/10 07:43:19;;;;;;;24.92;7.00;;;8.50;90.00;;;;;;5093277;28;20039;-71
2020/12/10 07:45:50;;;;;;;29.50;9.40;;;8.30;89.70;;;;;;5091819;28;20039;-71
2020/12/10 07:48:20;;;;;;;29.50;6.50;;;8.40;89.30;;;;;;5093209;28;20036;-69
2020/12/10 07:50:48;;;;;;;20.38;4.57;;;8.60;89.70;;;;;;5092609;28;20032;-70
2020/12/10 07:53:17;;;;;;;19.52;3.25;;;8.80;90.00;;;;;;5093145;28;20054;-71
2020/12/10 07:56:01;;;;;;;23.80;2.97;;;8.30;90.10;;;;;;5090735;28;20046;-71
2020/12/10 07:58:48;;;;;;;21.73;2.53;;;8.50;90.10;;;;;;5091449;28;20063;-71
2020/12/10 08:01:16;;;;;;;20.42;2.65;;;8.60;90.00;;;;;;5088603;28;20461;-71
2020/12/10 08:03:46;;;;;;;17.55;2.50;;;8.20;90.10;;;;;;5087492;28;20499;-71
2020/12/10 08:06:14;;;;;;;21.80;2.25;;;8.40;90.00;;;;;;5092587;28;20032;-71
2020/12/10 08:08:57;;;;;;;19.35;2.28;;;8.40;89.80;;;;;;5089234;28;20580;-71
2020/12/10 08:11:23;;;;;;;19.38;2.42;;;8.60;90.00;;;;;;5079463;28;20044;-71
2020/12/10 08:14:05;;;;;;;17.27;2.35;;;9.00;89.80;;;;;;5091512;28;20048;-71
2020/12/10 08:16:42;;;;;;;22.63;2.47;;;8.80;90.00;;;;;;5102092;28;20087;-71
2020/12/10 08:19:11;;;;;;;12.93;2.38;;;9.40;89.10;;;;;;5113695;28;20575;-71
2020/12/10 08:21:37;;;;;;;22.83;2.92;;;10.20;89.00;;;;;;5113040;28;20032;-71
2020/12/10 08:24:03;;;;;;;18.00;2.40;;;10.70;88.10;;;;;;5112826;28;20396;-71
2020/12/10 08:26:29;;;;;;;16.70;3.28;;;11.40;86.30;;;;;;5113250;28;20040;-71
2020/12/10 08:28:57;;;;;;;14.60;3.50;;;12.40;84.80;;;;;;5094986;28;20048;-70
2020/12/10 08:31:25;;;;;;;15.48;3.60;;;13.40;83.30;;;;;;5112993;28;20035;-71
2020/12/10 08:33:52;;;;;;;11.95;2.80;;;13.90;80.80;;;;;;5113112;28;20044;-71
2020/12/10 08:36:34;;;;;;;11.57;2.78;;;14.80;79.00;;;;;;5112658;28;20040;-71
2020/12/10 08:39:03;;;;;;;10.10;2.25;;;16.00;76.40;;;;;;5099956;28;20490;-71
2020/12/10 08:41:37;;;;;;;10.32;2.35;;;16.00;74.40;;;;;;5044258;28;20045;-70
2020/12/10 08:44:06;;;;;;;15.13;5.63;;;16.60;71.90;;;;;;5034486;28;20047;-70
2020/12/10 08:46:34;;;;;;;50.92;27.10;;;16.50;70.70;;;;;;5053118;28;20594;-71
2020/12/10 08:49:20;;;;;;;42.30;29.50;;;17.60;69.60;;;;;;5052727;28;20562;-71
2020/12/10 08:51:48;;;;;;;26.38;16.58;;;16.70;68.10;;;;;;5052290;28;20049;-70
2020/12/10 08:54:15;;;;;;;9.18;3.33;;;16.80;68.60;;;;;;5052916;28;20045;-70
2020/12/10 08:56:41;;;;;;;8.38;2.67;;;17.00;68.80;;;;;;5055053;28;20136;-70
2020/12/10 08:59:07;;;;;;;9.00;3.30;;;17.90;68.20;;;;;;5055096;28;20064;-71
2020/12/10 09:01:34;;;;;;;7.22;2.13;;;17.50;66.80;;;;;;5056283;28;20044;-70
2020/12/10 09:04:20;;;;;;;11.02;2.58;;;18.10;66.50;;;;;;5055742;28;20044;-70
2020/12/10 09:06:47;;;;;;;9.32;1.63;;;17.70;67.20;;;;;;5056244;28;20072;-70
2020/12/10 09:09:13;;;;;;;8.65;1.52;;;17.20;67.00;;;;;;5056694;28;20036;-71
2020/12/10 09:11:39;;;;;;;7.70;1.60;;;17.00;67.70;;;;;;5056459;28;20037;-71
2020/12/10 09:14:05;;;;;;;9.77;2.00;;;15.80;67.60;;;;;;5071644;28;20136;-70
2020/12/10 09:16:35;;;;;;;11.63;2.28;;;15.90;69.00;;;;;;5059734;28;20123;-70
2020/12/10 09:19:02;;;;;;;8.57;2.30;;;15.80;69.20;;;;;;5055554;28;20053;-70
2020/12/10 09:21:37;;;;;;;9.80;2.40;;;15.90;69.80;;;;;;5055077;28;20090;-70
2020/12/10 09:24:03;;;;;;;10.57;2.65;;;15.70;71.00;;;;;;5056032;28;20122;-70
2020/12/10 09:26:31;;;;;;;10.10;2.65;;;15.80;72.00;;;;;;5071329;28;20039;-70
2020/12/10 09:28:58;;;;;;;11.23;2.80;;;15.50;71.80;;;;;;5054821;28;20114;-70
2020/12/10 09:31:23;;;;;;;8.90;3.25;;;15.30;71.90;;;;;;5054714;28;20045;-70
2020/12/10 09:33:50;;;;;;;9.20;3.28;;;15.90;71.80;;;;;;5055323;28;20527;-71
2020/12/10 09:36:17;;;;;;;8.77;2.83;;;15.20;71.10;;;;;;5055709;28;20053;-71
2020/12/10 09:38:43;;;;;;;12.50;2.47;;;15.10;71.90;;;;;;5038320;28;20041;-70
2020/12/10 09:41:09;;;;;;;8.90;3.20;;;15.50;72.50;;;;;;5055427;28;20143;-71
2020/12/10 09:43:35;;;;;;;9.57;2.78;;;15.10;73.20;;;;;;5055592;28;20043;-71
2020/12/10 09:46:07;;;;;;;10.20;3.67;;;14.90;73.40;;;;;;5055476;28;20411;-70
2020/12/10 09:48:34;;;;;;;10.65;3.72;;;14.90;73.50;;;;;;5053221;28;20411;-71
2020/12/10 09:51:04;;;;;;;9.27;3.00;;;14.30;73.70;;;;;;5055238;28;20086;-71
2020/12/10 09:53:49;;;;;;;10.30;2.70;;;14.10;75.60;;;;;;5054221;28;20508;-71
2020/12/10 09:58:44;;;;;;;10.45;2.95;;;14.00;77.70;;;;;;5055180;28;20025;-70
2020/12/10 10:01:11;;;;;;;8.88;3.10;;;13.80;78.10;;;;;;5070502;28;20064;-70
2020/12/10 10:03:37;;;;;;;9.95;3.50;;;13.40;78.00;;;;;;5054917;28;20052;-71
2020/12/10 10:06:03;;;;;;;8.45;2.88;;;13.30;78.00;;;;;;5055906;28;20530;-71
2020/12/10 10:08:31;;;;;;;11.25;3.25;;;13.80;78.50;;;;;;5054497;28;20040;-70
2020/12/10 10:11:03;;;;;;;10.23;2.78;;;13.20;78.40;;;;;;5054862;28;20159;-71
2020/12/10 10:13:30;;;;;;;10.13;2.60;;;13.00;79.30;;;;;;5050545;28;20041;-71
2020/12/10 10:15:57;;;;;;;13.48;3.25;;;13.40;79.60;;;;;;5053469;28;20132;-71
2020/12/10 10:18:23;;;;;;;13.07;3.10;;;13.00;79.40;;;;;;5052557;28;20044;-72
2020/12/10 10:20:48;;;;;;;11.98;2.85;;;13.30;79.90;;;;;;5051901;28;20033;-72
2020/12/10 10:23:15;;;;;;;12.65;3.28;;;13.10;80.40;;;;;;5052073;28;20115;-72
2020/12/10 10:25:41;;;;;;;14.07;3.55;;;13.40;81.20;;;;;;5052607;28;20128;-72
2020/12/10 10:28:08;;;;;;;17.55;7.28;;;13.30;81.50;;;;;;5052055;28;20147;-72
2020/12/10 10:30:34;;;;;;;11.23;3.08;;;13.10;81.70;;;;;;5053635;28;20052;-72
2020/12/10 10:33:00;;;;;;;10.95;3.92;;;13.10;81.60;;;;;;5052521;28;20048;-72
2020/12/10 10:35:26;;;;;;;10.25;2.67;;;13.30;81.90;;;;;;5054910;28;20119;-72
2020/12/10 10:37:56;;;;;;;7.63;2.17;;;13.60;82.10;;;;;;5053500;28;20095;-71
2020/12/10 10:40:22;;;;;;;7.75;1.30;;;13.50;82.60;;;;;;5053137;28;20048;-71
2020/12/10 10:42:48;;;;;;;5.50;1.35;;;13.60;82.60;;;;;;5054316;28;20435;-72
2020/12/10 10:45:19;;;;;;;7.45;1.70;;;13.60;82.80;;;;;;5054265;28;20036;-72
2020/12/10 10:47:45;;;;;;;7.68;1.48;;;13.60;82.50;;;;;;5051161;28;20041;-72
2020/12/10 10:50:11;;;;;;;5.75;1.45;;;13.70;82.60;;;;;;5053461;28;20110;-72
2020/12/10 10:52:58;;;;;;;7.60;1.40;;;13.70;82.30;;;;;;5053989;28;20064;-72
2020/12/10 10:55:25;;;;;;;5.35;0.75;;;13.70;81.80;;;;;;5053711;28;20052;-71
2020/12/10 10:57:50;;;;;;;4.57;0.60;;;13.10;82.40;;;;;;5053304;28;20049;-72
2020/12/10 11:00:16;;;;;;;6.45;1.45;;;13.50;83.00;;;;;;5036170;28;20114;-71
2020/12/10 11:02:43;;;;;;;10.43;3.17;;;13.70;83.40;;;;;;5054159;28;20037;-72
2020/12/10 11:05:18;;;;;;;6.40;1.23;;;13.50;83.10;;;;;;5054061;28;20045;-72
2020/12/10 11:07:44;;;;;;;6.35;1.60;;;13.20;83.50;;;;;;5053133;28;20138;-72
2020/12/10 11:10:28;;;;;;;4.93;1.42;;;13.00;83.30;;;;;;5053927;28;20519;-72
2020/12/10 11:12:56;;;;;;;7.00;2.17;;;13.50;83.30;;;;;;5035823;28;20495;-72
2020/12/10 11:15:22;;;;;;;7.10;1.40;;;14.00;84.60;;;;;;5035873;28;20488;-72
2020/12/10 11:18:08;;;;;;;4.75;1.00;;;13.30;83.80;;;;;;5053204;28;20037;-72
2020/12/10 11:20:34;;;;;;;5.70;0.68;;;13.40;84.00;;;;;;5052372;28;20202;-72
2020/12/10 11:23:00;;;;;;;5.80;0.70;;;13.10;83.80;;;;;;5052875;28;20032;-72
2020/12/10 11:25:27;;;;;;;5.47;1.15;;;12.90;83.80;;;;;;5054017;28;20511;-72
2020/12/10 11:27:57;;;;;;;5.68;1.67;;;13.40;84.40;;;;;;5035424;28;20044;-72
2020/12/10 11:30:26;;;;;;;5.88;0.90;;;12.70;84.80;;;;;;5036492;28;20179;-72
2020/12/10 11:32:51;;;;;;;8.27;1.70;;;13.00;84.70;;;;;;5053643;28;20502;-72
2020/12/10 11:35:18;;;;;;;31.42;20.40;;;12.80;84.50;;;;;;5051608;28;20037;-72
2020/12/10 11:37:44;;;;;;;9.57;3.50;;;13.60;85.70;;;;;;5044120;28;20086;-72
2020/12/10 11:40:10;;;;;;;7.70;3.10;;;14.10;86.30;;;;;;5053962;28;20033;-72
2020/12/10 11:42:56;;;;;;;4.30;0.73;;;14.10;86.30;;;;;;5053551;28;20037;-72
2020/12/10 11:45:23;;;;;;;5.32;1.15;;;14.20;86.10;;;;;;5053938;28;20175;-71
2020/12/10 11:47:49;;;;;;;8.20;1.85;;;14.30;85.70;;;;;;5035476;28;20081;-71
2020/12/10 11:50:19;;;;;;;5.97;1.10;;;14.10;85.40;;;;;;5053672;28;20048;-72
2020/12/10 11:52:49;;;;;;;5.70;1.50;;;14.30;85.60;;;;;;5043074;28;20037;-72
2020/12/10 11:55:15;;;;;;;7.78;1.60;;;14.20;85.20;;;;;;5049826;28;20052;-72
2020/12/10 11:58:00;;;;;;;6.70;1.95;;;14.60;84.70;;;;;;5053078;28;20041;-72
2020/12/10 12:00:46;;;;;;;6.32;1.70;;;14.40;84.60;;;;;;5053182;28;20488;-72
2020/12/10 12:03:14;;;;;;;4.55;0.90;;;14.40;84.20;;;;;;5052992;28;20051;-72
2020/12/10 12:06:00;;;;;;;4.35;1.00;;;14.50;83.60;;;;;;5053588;28;20503;-72
2020/12/10 12:08:27;;;;;;;5.68;1.13;;;14.20;83.90;;;;;;5052916;28;20072;-72
2020/12/10 12:10:54;;;;;;;5.75;1.27;;;13.60;83.30;;;;;;5053216;28;20110;-72
2020/12/10 12:13:21;;;;;;;8.10;1.90;;;14.60;84.20;;;;;;5052811;28;20045;-71
2020/12/10 12:15:47;;;;;;;7.50;1.95;;;14.20;84.10;;;;;;5053120;28;20106;-73
2020/12/10 12:18:16;;;;;;;6.05;2.38;;;14.10;83.60;;;;;;5049569;28;20045;-72
2020/12/10 12:21:01;;;;;;;6.65;1.88;;;14.60;82.60;;;;;;5052130;28;20051;-73
2020/12/10 12:23:27;;;;;;;6.15;1.52;;;14.80;83.30;;;;;;5049910;28;20131;-73
2020/12/10 12:26:16;;;;;;;5.55;1.30;;;14.60;82.80;;;;;;5050111;28;20127;-72
2020/12/10 12:28:41;;;;;;;5.95;0.93;;;14.90;83.50;;;;;;5051786;28;20428;-72
2020/12/10 12:31:07;;;;;;;4.78;0.80;;;14.90;82.90;;;;;;5055757;28;20520;-72
2020/12/10 12:33:33;;;;;;;5.95;0.98;;;14.30;82.40;;;;;;5056543;28;20048;-72
2020/12/10 12:35:59;;;;;;;7.25;0.77;;;14.60;82.70;;;;;;5054178;28;20051;-72
2020/12/10 12:38:31;;;;;;;5.40;1.20;;;15.00;82.90;;;;;;5055705;28;20049;-72
2020/12/10 12:40:57;;;;;;;7.63;1.27;;;14.60;81.00;;;;;;5054821;28;20498;-72
2020/12/10 12:43:23;;;;;;;5.63;1.40;;;14.70;82.40;;;;;;5057636;28;20029;-72
2020/12/10 12:46:09;;;;;;;3.63;1.17;;;15.00;82.20;;;;;;5054939;28;20041;-72
2020/12/10 12:48:53;;;;;;;4.50;0.70;;;14.60;82.40;;;;;;5050764;28;20075;-73
2020/12/10 12:51:20;;;;;;;3.70;0.75;;;14.70;79.70;;;;;;5054370;28;20076;-72
2020/12/10 12:53:52;;;;;;;4.50;1.20;;;14.50;80.30;;;;;;5054750;28;20049;-72
2020/12/10 12:56:20;;;;;;;10.20;3.75;;;14.40;79.90;;;;;;5047365;28;20049;-72